createdAt,value
2022-12-28T00:00:32.192Z,5.90
2022-12-28T00:01:32.087Z,7.00
2022-12-28T00:02:32.086Z,9.80
2022-12-28T00:03:32.080Z,7.00
2022-12-28T00:04:32.044Z,8.40
2022-12-28T00:05:32.043Z,9.00
2022-12-28T00:06:32.076Z,7.50
2022-12-28T00:07:32.023Z,8.60
2022-12-28T00:08:32.008Z,7.20
2022-12-28T00:09:32.006Z,8.60
2022-12-28T00:11:06.555Z,5.30
2022-12-28T00:11:32.002Z,7.50
2022-12-28T00:12:32.132Z,7.00
2022-12-28T00:13:31.947Z,6.30
2022-12-28T00:14:31.941Z,6.80
2022-12-28T00:15:31.937Z,8.40
2022-12-28T00:16:32.063Z,6.60
2022-12-28T00:17:31.910Z,7.10
2022-12-28T00:18:32.062Z,7.40
2022-12-28T00:19:31.889Z,8.70
2022-12-28T00:20:31.886Z,6.70
2022-12-28T00:21:31.877Z,5.90
2022-12-28T00:22:31.868Z,6.50
2022-12-28T00:23:31.867Z,6.10
2022-12-28T00:24:31.896Z,7.30
2022-12-28T00:25:31.821Z,6.20
2022-12-28T00:26:31.825Z,6.20
2022-12-28T00:27:31.805Z,6.50
2022-12-28T00:28:31.795Z,5.90
2022-12-28T00:29:31.795Z,5.00
2022-12-28T00:30:31.940Z,5.90
2022-12-28T00:31:31.811Z,5.20
2022-12-28T00:32:31.766Z,7.30
2022-12-28T00:33:31.783Z,4.30
2022-12-28T00:34:31.740Z,7.40
2022-12-28T00:35:31.725Z,8.30
2022-12-28T00:37:08.925Z,5.70
2022-12-28T00:37:31.700Z,6.70
2022-12-28T00:38:31.679Z,5.90
2022-12-28T00:39:31.688Z,5.50
2022-12-28T00:40:31.694Z,4.50
2022-12-28T00:41:31.664Z,5.70
2022-12-28T00:42:31.754Z,7.40
2022-12-28T00:43:31.636Z,6.30
2022-12-28T00:44:31.624Z,5.40
2022-12-28T00:45:31.694Z,4.80
2022-12-28T00:46:31.618Z,5.40
2022-12-28T00:47:31.597Z,7.60
2022-12-28T00:48:31.740Z,5.40
2022-12-28T00:49:31.574Z,4.90
2022-12-28T00:50:31.571Z,6.10
2022-12-28T00:51:31.575Z,5.20
2022-12-28T00:52:31.553Z,5.60
2022-12-28T00:53:31.537Z,7.20
2022-12-28T00:54:31.566Z,4.40
2022-12-28T00:55:31.522Z,4.90
2022-12-28T00:56:38.865Z,5.90
2022-12-28T00:57:31.473Z,5.60
2022-12-28T00:58:31.484Z,5.20
2022-12-28T00:59:31.478Z,7.30
2022-12-28T01:00:31.591Z,6.40
2022-12-28T01:01:31.624Z,3.80
2022-12-28T01:02:31.488Z,4.00
2022-12-28T01:03:31.434Z,5.10
2022-12-28T01:04:31.443Z,5.10
2022-12-28T01:05:31.399Z,5.50
2022-12-28T01:06:31.531Z,6.60
2022-12-28T01:07:31.385Z,6.80
2022-12-28T01:08:31.369Z,6.10
2022-12-28T01:09:31.362Z,8.80
2022-12-28T01:10:31.355Z,4.70
2022-12-28T01:11:31.339Z,6.30
2022-12-28T01:12:37.787Z,3.80
2022-12-28T01:13:31.528Z,7.20
2022-12-28T01:14:31.311Z,4.90
2022-12-28T01:15:31.292Z,5.70
2022-12-28T01:16:31.327Z,3.70
2022-12-28T01:17:31.342Z,5.40
2022-12-28T01:18:31.388Z,4.50
2022-12-28T01:19:31.254Z,5.20
2022-12-28T01:20:31.243Z,5.20
2022-12-28T01:21:31.231Z,3.20
2022-12-28T01:22:31.219Z,5.40
2022-12-28T01:23:31.257Z,4.90
2022-12-28T01:24:31.220Z,4.50
2022-12-28T01:25:31.185Z,6.00
2022-12-28T01:26:31.190Z,4.60
2022-12-28T01:27:31.159Z,5.00
2022-12-28T01:28:31.161Z,3.40
2022-12-28T01:29:31.142Z,5.00
2022-12-28T01:30:31.313Z,4.10
2022-12-28T01:31:31.159Z,4.40
2022-12-28T01:32:31.114Z,4.70
2022-12-28T01:33:31.119Z,3.90
2022-12-28T01:34:31.094Z,4.70
2022-12-28T01:35:31.079Z,3.90
2022-12-28T01:36:31.117Z,4.60
2022-12-28T01:37:31.063Z,5.70
2022-12-28T01:38:31.053Z,5.00
2022-12-28T01:39:31.041Z,4.70
2022-12-28T01:40:31.032Z,5.40
2022-12-28T01:41:31.012Z,2.50
2022-12-28T01:42:31.152Z,3.80
2022-12-28T01:43:31.040Z,4.60
2022-12-28T01:44:30.998Z,3.00
2022-12-28T01:45:31.053Z,3.80
2022-12-28T01:46:30.982Z,3.90
2022-12-28T01:47:30.962Z,4.70
2022-12-28T01:48:31.188Z,3.70
2022-12-28T01:49:30.946Z,4.90
2022-12-28T01:50:30.929Z,4.20
2022-12-28T01:51:30.913Z,5.00
2022-12-28T01:52:30.917Z,4.60
2022-12-28T01:53:30.891Z,4.20
2022-12-28T01:54:30.922Z,4.70
2022-12-28T01:55:30.878Z,2.90
2022-12-28T01:56:30.863Z,2.40
2022-12-28T01:57:30.904Z,4.50
2022-12-28T01:58:30.848Z,4.10
2022-12-28T01:59:30.832Z,4.40
2022-12-28T02:00:30.959Z,4.60
2022-12-28T02:01:30.917Z,3.20
2022-12-28T02:02:31.041Z,3.20
2022-12-28T02:03:30.784Z,3.40
2022-12-28T02:04:30.834Z,2.60
2022-12-28T02:05:30.767Z,3.30
2022-12-28T02:06:30.916Z,4.80
2022-12-28T02:07:30.740Z,4.00
2022-12-28T02:08:30.741Z,4.40
2022-12-28T02:09:30.733Z,3.00
2022-12-28T02:10:44.577Z,4.60
2022-12-28T02:11:30.706Z,4.40
2022-12-28T02:12:30.801Z,5.30
2022-12-28T02:13:30.676Z,5.00
2022-12-28T02:14:30.673Z,3.20
2022-12-28T02:15:30.664Z,3.60
2022-12-28T02:16:30.687Z,2.50
2022-12-28T02:17:30.650Z,6.40
2022-12-28T02:18:30.676Z,1.60
2022-12-28T02:19:30.685Z,3.70
2022-12-28T02:20:30.610Z,3.30
2022-12-28T02:21:30.592Z,3.20
2022-12-28T02:22:30.589Z,4.40
2022-12-28T02:23:30.572Z,3.00
2022-12-28T02:24:30.608Z,5.50
2022-12-28T02:25:30.552Z,3.20
2022-12-28T02:26:30.547Z,3.00
2022-12-28T02:27:30.535Z,3.10
2022-12-28T02:28:30.526Z,3.30
2022-12-28T02:29:30.516Z,5.40
2022-12-28T02:30:30.702Z,2.60
2022-12-28T02:31:30.487Z,3.70
2022-12-28T02:32:30.496Z,2.20
2022-12-28T02:33:30.468Z,2.30
2022-12-28T02:34:30.462Z,4.40
2022-12-28T02:35:30.444Z,2.50
2022-12-28T02:36:30.584Z,4.30
2022-12-28T02:37:30.475Z,3.90
2022-12-28T02:38:30.423Z,2.50
2022-12-28T02:39:30.479Z,4.20
2022-12-28T02:40:30.405Z,2.40
2022-12-28T02:41:30.382Z,2.80
2022-12-28T02:42:30.526Z,2.70
2022-12-28T02:43:30.365Z,3.70
2022-12-28T02:44:30.366Z,3.40
2022-12-28T02:45:30.342Z,5.10
2022-12-28T02:46:30.373Z,2.70
2022-12-28T02:47:30.320Z,3.00
2022-12-28T02:48:30.346Z,2.30
2022-12-28T02:49:30.292Z,3.50
2022-12-28T02:50:30.311Z,3.00
2022-12-28T02:51:30.270Z,2.20
2022-12-28T02:52:30.266Z,3.40
2022-12-28T02:53:30.260Z,2.90
2022-12-28T02:54:30.365Z,3.20
2022-12-28T02:55:30.237Z,3.20
2022-12-28T02:56:37.402Z,3.90
2022-12-28T02:57:30.226Z,2.90
2022-12-28T02:58:30.205Z,2.40
2022-12-28T02:59:30.208Z,3.00
2022-12-28T03:00:30.201Z,3.80
2022-12-28T03:01:30.238Z,2.20
2022-12-28T03:02:30.335Z,2.20
2022-12-28T03:03:30.177Z,3.20
2022-12-28T03:04:30.140Z,2.10
2022-12-28T03:05:30.141Z,2.00
2022-12-28T03:06:30.675Z,2.20
2022-12-28T03:07:30.119Z,4.40
2022-12-28T03:08:30.093Z,3.20
2022-12-28T03:09:30.121Z,3.20
2022-12-28T03:10:30.079Z,2.30
2022-12-28T03:11:30.069Z,2.60
2022-12-28T03:12:30.203Z,2.50
2022-12-28T03:13:30.059Z,1.50
2022-12-28T03:14:30.047Z,2.20
2022-12-28T03:15:30.266Z,3.40
2022-12-28T03:16:30.028Z,3.00
2022-12-28T03:17:30.004Z,2.90
2022-12-28T03:18:30.135Z,2.10
2022-12-28T03:19:29.988Z,4.40
2022-12-28T03:20:29.973Z,2.70
2022-12-28T03:21:30.024Z,2.60
2022-12-28T03:22:30.040Z,3.00
2022-12-28T03:23:30.002Z,1.90
2022-12-28T03:24:29.970Z,2.10
2022-12-28T03:25:29.931Z,4.20
2022-12-28T03:26:29.947Z,2.20
2022-12-28T03:27:29.924Z,2.80
2022-12-28T03:28:29.904Z,2.70
2022-12-28T03:29:29.881Z,3.60
2022-12-28T03:30:29.937Z,2.70
2022-12-28T03:31:29.887Z,2.00
2022-12-28T03:32:29.858Z,2.80
2022-12-28T03:33:29.842Z,3.10
2022-12-28T03:34:29.862Z,2.70
2022-12-28T03:35:29.831Z,1.70
2022-12-28T03:36:29.866Z,2.70
2022-12-28T03:37:29.791Z,1.30
2022-12-28T03:38:29.790Z,3.10
2022-12-28T03:39:29.769Z,2.40
2022-12-28T03:40:29.780Z,3.90
2022-12-28T03:41:29.778Z,1.30
2022-12-28T03:42:29.781Z,2.00
2022-12-28T03:43:29.751Z,2.80
2022-12-28T03:44:29.712Z,2.90
2022-12-28T03:45:45.557Z,2.60
2022-12-28T03:46:29.853Z,2.60
2022-12-28T03:47:29.697Z,1.70
2022-12-28T03:48:30.390Z,3.50
2022-12-28T03:49:29.691Z,2.10
2022-12-28T03:50:29.656Z,2.90
2022-12-28T03:51:29.645Z,1.60
2022-12-28T03:52:29.647Z,2.80
2022-12-28T03:53:29.637Z,2.40
2022-12-28T03:54:29.661Z,2.40
2022-12-28T03:55:29.624Z,2.90
2022-12-28T03:56:36.914Z,3.90
2022-12-28T03:57:29.581Z,1.70
2022-12-28T03:58:29.569Z,1.80
2022-12-28T03:59:29.563Z,2.70
2022-12-28T04:00:29.579Z,1.50
2022-12-28T04:01:29.730Z,1.90
2022-12-28T04:02:29.728Z,2.70
2022-12-28T04:03:29.594Z,2.40
2022-12-28T04:04:29.572Z,3.00
2022-12-28T04:05:29.509Z,1.90
2022-12-28T04:06:29.618Z,2.00
2022-12-28T04:07:29.480Z,2.00
2022-12-28T04:08:29.466Z,1.90
2022-12-28T04:09:29.466Z,1.30
2022-12-28T04:10:29.444Z,2.70
2022-12-28T04:11:29.435Z,1.30
2022-12-28T04:12:29.576Z,2.00
2022-12-28T04:13:29.418Z,1.00
2022-12-28T04:14:29.419Z,2.10
2022-12-28T04:15:29.420Z,3.40
2022-12-28T04:16:29.377Z,2.00
2022-12-28T04:17:29.375Z,2.30
2022-12-28T04:18:29.488Z,2.00
2022-12-28T04:19:29.361Z,1.70
2022-12-28T04:20:29.342Z,2.90
2022-12-28T04:21:29.333Z,1.90
2022-12-28T04:22:29.309Z,2.20
2022-12-28T04:23:29.325Z,2.20
2022-12-28T04:24:29.343Z,1.20
2022-12-28T04:25:29.288Z,1.70
2022-12-28T04:26:29.274Z,1.80
2022-12-28T04:27:29.265Z,2.00
2022-12-28T04:28:29.251Z,1.20
2022-12-28T04:29:29.254Z,1.80
2022-12-28T04:30:29.381Z,1.50
2022-12-28T04:31:29.308Z,1.40
2022-12-28T04:32:29.231Z,1.40
2022-12-28T04:33:29.209Z,2.30
2022-12-28T04:34:29.201Z,2.20
2022-12-28T04:35:29.188Z,2.90
2022-12-28T04:36:29.300Z,2.00
2022-12-28T04:37:29.160Z,2.00
2022-12-28T04:38:29.143Z,2.00
2022-12-28T04:39:29.176Z,2.30
2022-12-28T04:40:29.132Z,2.20
2022-12-28T04:41:29.181Z,2.00
2022-12-28T04:42:29.163Z,2.20
2022-12-28T04:43:29.101Z,1.70
2022-12-28T04:44:29.086Z,1.00
2022-12-28T04:45:29.082Z,1.60
2022-12-28T04:46:29.154Z,1.50
2022-12-28T04:47:29.052Z,1.10
2022-12-28T04:48:29.071Z,2.50
2022-12-28T04:49:29.055Z,2.30
2022-12-28T04:50:29.038Z,2.10
2022-12-28T04:51:29.047Z,2.20
2022-12-28T04:52:29.001Z,2.20
2022-12-28T04:53:29.015Z,2.50
2022-12-28T04:54:29.203Z,1.30
2022-12-28T04:55:32.852Z,1.70
2022-12-28T04:57:23.562Z,1.70
2022-12-28T04:58:23.898Z,2.10
2022-12-28T04:59:23.905Z,2.70
2022-12-28T05:00:24.217Z,2.30
2022-12-28T05:01:23.972Z,1.50
2022-12-28T05:02:23.977Z,2.00
2022-12-28T05:03:23.852Z,2.30
2022-12-28T05:04:23.862Z,1.10
2022-12-28T05:05:23.831Z,1.70
2022-12-28T05:06:23.977Z,2.40
2022-12-28T05:07:23.825Z,1.30
2022-12-28T05:08:23.805Z,1.70
2022-12-28T05:09:23.792Z,1.80
2022-12-28T05:10:24.014Z,1.90
2022-12-28T05:11:23.780Z,2.30
2022-12-28T05:12:23.801Z,1.90
2022-12-28T05:13:23.751Z,1.50
2022-12-28T05:14:23.735Z,1.20
2022-12-28T05:15:23.725Z,2.00
2022-12-28T05:16:23.738Z,1.90
2022-12-28T05:17:23.701Z,2.20
2022-12-28T05:18:23.745Z,1.70
2022-12-28T05:19:23.690Z,1.30
2022-12-28T05:20:23.690Z,1.60
2022-12-28T05:21:23.662Z,1.10
2022-12-28T05:22:23.648Z,1.00
2022-12-28T05:23:23.641Z,1.80
2022-12-28T05:24:23.697Z,1.30
2022-12-28T05:25:23.639Z,1.10
2022-12-28T05:26:23.652Z,2.30
2022-12-28T05:27:23.603Z,1.80
2022-12-28T05:28:23.583Z,1.70
2022-12-28T05:29:23.587Z,2.40
2022-12-28T05:30:23.697Z,1.40
2022-12-28T05:31:23.619Z,1.70
2022-12-28T05:32:23.534Z,1.70
2022-12-28T05:33:23.538Z,1.10
2022-12-28T05:34:23.520Z,1.30
2022-12-28T05:35:23.530Z,1.50
2022-12-28T05:36:23.681Z,1.60
2022-12-28T05:37:23.501Z,2.00
2022-12-28T05:38:23.486Z,2.30
2022-12-28T05:39:23.485Z,2.00
2022-12-28T05:40:23.464Z,1.10
2022-12-28T05:41:23.468Z,1.00
2022-12-28T05:42:23.723Z,1.90
2022-12-28T05:43:23.473Z,1.90
2022-12-28T05:44:23.415Z,1.60
2022-12-28T05:45:23.427Z,1.30
2022-12-28T05:46:23.408Z,1.10
2022-12-28T05:47:23.419Z,1.10
2022-12-28T05:48:23.725Z,1.40
2022-12-28T05:49:23.399Z,2.00
2022-12-28T05:50:23.377Z,1.80
2022-12-28T05:51:23.342Z,2.00
2022-12-28T05:52:23.332Z,0.90
2022-12-28T05:53:23.345Z,2.10
2022-12-28T05:54:23.447Z,1.30
2022-12-28T05:55:23.315Z,2.00
2022-12-28T05:56:25.126Z,1.70
2022-12-28T05:57:31.729Z,1.20
2022-12-28T05:58:23.268Z,1.30
2022-12-28T05:59:23.256Z,2.30
2022-12-28T06:00:23.376Z,1.70
2022-12-28T06:01:23.284Z,0.70
2022-12-28T06:02:24.845Z,1.70
2022-12-28T06:03:23.364Z,2.00
2022-12-28T06:04:23.203Z,2.00
2022-12-28T06:05:23.208Z,1.40
2022-12-28T06:06:23.424Z,0.90
2022-12-28T06:07:23.195Z,1.00
2022-12-28T06:08:23.159Z,1.70
2022-12-28T06:09:23.162Z,1.50
2022-12-28T06:10:23.139Z,1.40
2022-12-28T06:11:23.133Z,2.10
2022-12-28T06:12:23.164Z,1.30
2022-12-28T06:13:23.110Z,1.60
2022-12-28T06:14:23.100Z,1.70
2022-12-28T06:15:23.084Z,1.10
2022-12-28T06:16:23.111Z,1.90
2022-12-28T06:17:23.071Z,1.20
2022-12-28T06:18:23.187Z,0.80
2022-12-28T06:19:23.051Z,0.90
2022-12-28T06:20:23.030Z,1.90
2022-12-28T06:21:23.029Z,2.10
2022-12-28T06:22:23.013Z,1.30
2022-12-28T06:23:23.009Z,1.10
2022-12-28T06:24:23.117Z,1.20
2022-12-28T06:25:22.985Z,1.30
2022-12-28T06:26:22.969Z,1.30
2022-12-28T06:27:22.969Z,1.70
2022-12-28T06:28:22.958Z,1.10
2022-12-28T06:29:22.941Z,2.30
2022-12-28T06:30:22.976Z,1.00
2022-12-28T06:31:22.965Z,1.60
2022-12-28T06:32:22.907Z,1.70
2022-12-28T06:33:22.913Z,1.00
2022-12-28T06:34:22.887Z,1.60
2022-12-28T06:35:22.884Z,1.30
2022-12-28T06:36:22.995Z,1.40
2022-12-28T06:37:22.859Z,0.80
2022-12-28T06:38:22.855Z,1.20
2022-12-28T06:39:22.850Z,1.10
2022-12-28T06:40:39.529Z,1.00
2022-12-28T06:41:22.825Z,1.30
2022-12-28T06:42:22.828Z,2.10
2022-12-28T06:43:22.798Z,1.20
2022-12-28T06:44:22.783Z,1.60
2022-12-28T06:45:22.777Z,0.80
2022-12-28T06:46:22.817Z,1.50
2022-12-28T06:47:22.749Z,1.40
2022-12-28T06:48:22.918Z,1.80
2022-12-28T06:49:22.733Z,1.10
2022-12-28T06:50:22.718Z,1.10
2022-12-28T06:51:22.723Z,1.80
2022-12-28T06:52:22.696Z,1.90
2022-12-28T06:53:22.691Z,1.30
2022-12-28T06:54:22.716Z,1.70
2022-12-28T06:55:22.669Z,1.30
2022-12-28T06:56:22.652Z,1.50
2022-12-28T06:57:22.647Z,1.20
2022-12-28T06:58:22.630Z,1.50
2022-12-28T06:59:22.628Z,1.00
2022-12-28T07:00:22.758Z,1.90
2022-12-28T07:01:22.719Z,1.10
2022-12-28T07:02:22.764Z,1.20
2022-12-28T07:03:22.583Z,1.60
2022-12-28T07:04:22.571Z,1.20
2022-12-28T07:05:22.565Z,0.60
2022-12-28T07:06:22.796Z,1.00
2022-12-28T07:07:22.544Z,2.20
2022-12-28T07:08:22.529Z,2.50
2022-12-28T07:09:22.522Z,0.80
2022-12-28T07:10:22.508Z,1.50
2022-12-28T07:11:22.496Z,1.90
2022-12-28T07:12:22.530Z,0.60
2022-12-28T07:13:27.983Z,1.40
2022-12-28T07:14:22.480Z,0.80
2022-12-28T07:15:22.455Z,1.20
2022-12-28T07:16:22.469Z,0.90
2022-12-28T07:17:22.439Z,1.10
2022-12-28T07:18:22.462Z,1.60
2022-12-28T07:19:22.415Z,2.00
2022-12-28T07:20:22.399Z,0.90
2022-12-28T07:21:22.396Z,0.80
2022-12-28T07:22:22.378Z,1.20
2022-12-28T07:23:22.375Z,1.00
2022-12-28T07:24:22.383Z,1.30
2022-12-28T07:25:22.382Z,1.60
2022-12-28T07:26:22.392Z,2.20
2022-12-28T07:27:22.326Z,2.20
2022-12-28T07:28:22.319Z,1.40
2022-12-28T07:29:22.316Z,1.40
2022-12-28T07:30:22.428Z,0.80
2022-12-28T07:31:22.372Z,1.00
2022-12-28T07:32:22.279Z,0.70
2022-12-28T07:33:22.267Z,0.80
2022-12-28T07:34:22.278Z,1.20
2022-12-28T07:35:22.244Z,1.90
2022-12-28T07:36:22.378Z,1.30
2022-12-28T07:37:22.228Z,0.90
2022-12-28T07:38:22.387Z,0.60
2022-12-28T07:39:22.265Z,0.90
2022-12-28T07:40:22.222Z,1.40
2022-12-28T07:41:22.202Z,1.10
2022-12-28T07:42:22.206Z,1.60
2022-12-28T07:43:22.183Z,0.90
2022-12-28T07:44:22.180Z,1.20
2022-12-28T07:45:22.170Z,0.80
2022-12-28T07:46:22.173Z,1.60
2022-12-28T07:47:22.137Z,1.20
2022-12-28T07:48:22.240Z,1.50
2022-12-28T07:49:22.104Z,0.90
2022-12-28T07:50:22.090Z,1.50
2022-12-28T07:51:22.100Z,1.40
2022-12-28T07:52:22.068Z,1.20
2022-12-28T07:53:22.399Z,1.10
2022-12-28T07:54:22.182Z,2.00
2022-12-28T07:55:22.040Z,1.20
2022-12-28T07:56:22.026Z,1.40
2022-12-28T07:57:30.271Z,2.00
2022-12-28T07:58:21.994Z,1.80
2022-12-28T07:59:25.954Z,1.20
2022-12-28T08:00:22.124Z,1.20
2022-12-28T08:01:22.082Z,1.30
2022-12-28T08:02:22.094Z,0.90
2022-12-28T08:03:22.006Z,0.60
2022-12-28T08:04:21.959Z,1.10
2022-12-28T08:05:21.941Z,0.90
2022-12-28T08:06:21.988Z,1.60
2022-12-28T08:07:21.938Z,1.30
2022-12-28T08:08:21.901Z,1.20
2022-12-28T08:09:21.907Z,1.10
2022-12-28T08:10:21.877Z,0.80
2022-12-28T08:11:22.059Z,1.10
2022-12-28T08:12:22.102Z,1.40
2022-12-28T08:13:21.852Z,1.00
2022-12-28T08:14:21.845Z,1.00
2022-12-28T08:15:21.832Z,1.70
2022-12-28T08:16:21.855Z,1.10
2022-12-28T08:17:21.821Z,1.50
2022-12-28T08:18:21.921Z,0.90
2022-12-28T08:19:21.802Z,1.40
2022-12-28T08:20:21.770Z,1.50
2022-12-28T08:21:21.771Z,1.10
2022-12-28T08:22:21.761Z,0.90
2022-12-28T08:23:21.758Z,1.40
2022-12-28T08:24:21.867Z,1.90
2022-12-28T08:25:21.734Z,0.80
2022-12-28T08:26:21.728Z,1.00
2022-12-28T08:27:21.700Z,1.10
2022-12-28T08:28:21.694Z,0.90
2022-12-28T08:29:21.703Z,0.80
2022-12-28T08:30:21.766Z,1.20
2022-12-28T08:31:21.712Z,1.90
2022-12-28T08:32:21.659Z,0.70
2022-12-28T08:33:21.644Z,1.00
2022-12-28T08:34:21.630Z,1.20
2022-12-28T08:35:21.669Z,1.40
2022-12-28T08:36:21.746Z,1.20
2022-12-28T08:37:21.598Z,1.30
2022-12-28T08:38:21.559Z,1.20
2022-12-28T08:39:21.544Z,1.00
2022-12-28T08:40:21.521Z,0.80
2022-12-28T08:41:21.501Z,0.70
2022-12-28T08:42:21.585Z,1.80
2022-12-28T08:43:21.546Z,0.90
2022-12-28T08:44:21.530Z,0.70
2022-12-28T08:45:21.524Z,0.80
2022-12-28T08:46:21.584Z,0.60
2022-12-28T08:47:21.446Z,1.20
2022-12-28T08:48:21.543Z,1.10
2022-12-28T08:49:21.484Z,1.10
2022-12-28T08:50:26.520Z,2.60
2022-12-28T08:51:21.800Z,0.70
2022-12-28T08:52:21.573Z,1.10
2022-12-28T08:53:21.442Z,1.10
2022-12-28T08:54:21.501Z,1.50
2022-12-28T08:55:21.372Z,0.80
2022-12-28T08:56:21.346Z,1.40
2022-12-28T08:57:28.775Z,1.20
2022-12-28T08:58:21.321Z,0.90
2022-12-28T08:59:21.301Z,0.90
2022-12-28T09:00:21.382Z,1.10
2022-12-28T09:01:21.432Z,1.10
2022-12-28T09:02:21.490Z,1.20
2022-12-28T09:03:21.374Z,0.60
2022-12-28T09:04:21.342Z,1.10
2022-12-28T09:05:21.330Z,1.10
2022-12-28T09:06:21.434Z,1.10
2022-12-28T09:07:21.245Z,0.60
2022-12-28T09:08:21.220Z,0.60
2022-12-28T09:09:21.241Z,1.50
2022-12-28T09:10:21.228Z,1.60
2022-12-28T09:11:21.232Z,2.50
2022-12-28T09:12:21.339Z,1.20
2022-12-28T09:13:21.151Z,1.50
2022-12-28T09:14:24.093Z,0.50
2022-12-28T09:15:21.188Z,0.80
2022-12-28T09:16:21.238Z,1.10
2022-12-28T09:17:21.139Z,0.80
2022-12-28T09:18:21.394Z,1.00
2022-12-28T09:19:21.222Z,0.80
2022-12-28T09:20:21.169Z,0.90
2022-12-28T09:21:21.131Z,0.80
2022-12-28T09:22:21.142Z,0.80
2022-12-28T09:23:21.167Z,0.80
2022-12-28T09:24:21.197Z,0.90
2022-12-28T09:25:21.035Z,1.00
2022-12-28T09:26:21.045Z,1.90
2022-12-28T09:27:21.011Z,0.80
2022-12-28T09:28:21.022Z,1.20
2022-12-28T09:29:21.051Z,0.40
2022-12-28T09:30:21.181Z,1.20
2022-12-28T09:31:21.098Z,1.20
2022-12-28T09:32:21.045Z,0.80
2022-12-28T09:33:21.108Z,0.80
2022-12-28T09:34:37.869Z,0.60
2022-12-28T09:35:21.126Z,0.70
2022-12-28T09:36:21.293Z,1.70
2022-12-28T09:37:20.965Z,1.00
2022-12-28T09:38:20.987Z,1.00
2022-12-28T09:39:21.058Z,2.00
2022-12-28T09:40:21.019Z,2.00
2022-12-28T09:41:20.912Z,1.10
2022-12-28T09:42:20.955Z,1.30
2022-12-28T09:43:20.899Z,1.70
2022-12-28T09:44:20.900Z,0.80
2022-12-28T09:45:20.882Z,1.60
2022-12-28T09:46:20.908Z,0.80
2022-12-28T09:47:20.957Z,1.00
2022-12-28T09:48:20.938Z,1.30
2022-12-28T09:49:20.839Z,1.40
2022-12-28T09:50:20.852Z,1.10
2022-12-28T09:51:20.819Z,0.90
2022-12-28T09:52:20.810Z,1.00
2022-12-28T09:53:20.799Z,0.90
2022-12-28T09:54:20.935Z,0.80
2022-12-28T09:55:20.722Z,0.80
2022-12-28T09:56:20.744Z,0.90
2022-12-28T09:57:27.830Z,0.80
2022-12-28T09:58:20.715Z,1.40
2022-12-28T09:59:20.704Z,0.80
2022-12-28T10:00:20.779Z,0.60
2022-12-28T10:01:20.758Z,2.90
2022-12-28T10:02:20.749Z,2.50
2022-12-28T10:03:20.764Z,1.20
2022-12-28T10:04:20.639Z,0.90
2022-12-28T10:05:20.641Z,0.90
2022-12-28T10:06:20.645Z,0.80
2022-12-28T10:07:21.400Z,1.20
2022-12-28T10:08:21.458Z,1.00
2022-12-28T10:09:20.574Z,0.70
2022-12-28T10:10:20.570Z,1.10
2022-12-28T10:11:21.769Z,1.00
2022-12-28T10:12:20.591Z,1.30
2022-12-28T10:14:20.530Z,1.00
2022-12-28T10:15:20.535Z,1.10
2022-12-28T10:16:20.640Z,1.10
2022-12-28T10:17:20.549Z,0.60
2022-12-28T10:18:20.807Z,0.80
2022-12-28T10:19:20.639Z,0.90
2022-12-28T10:20:20.548Z,1.70
2022-12-28T10:21:20.513Z,0.50
2022-12-28T10:22:22.414Z,0.50
2022-12-28T10:23:20.585Z,1.10
2022-12-28T10:24:31.499Z,1.10
2022-12-28T10:25:20.470Z,2.80
2022-12-28T10:26:20.459Z,0.50
2022-12-28T10:27:20.459Z,0.80
2022-12-28T10:28:20.394Z,0.50
2022-12-28T10:29:20.380Z,0.90
2022-12-28T10:30:20.533Z,1.00
2022-12-28T10:31:20.476Z,0.80
2022-12-28T10:32:20.362Z,2.30
2022-12-28T10:33:20.317Z,1.00
2022-12-28T10:34:20.372Z,1.90
2022-12-28T10:35:20.307Z,0.80
2022-12-28T10:36:20.474Z,0.70
2022-12-28T10:37:20.330Z,1.00
2022-12-28T10:38:20.324Z,1.00
2022-12-28T10:39:20.254Z,0.70
2022-12-28T10:40:20.308Z,0.60
2022-12-28T10:41:20.296Z,2.00
2022-12-28T10:42:20.393Z,1.80
2022-12-28T10:43:20.229Z,2.20
2022-12-28T10:45:20.198Z,0.90
2022-12-28T10:46:20.283Z,0.60
2022-12-28T10:47:20.180Z,0.90
2022-12-28T10:48:20.314Z,1.50
2022-12-28T10:49:20.164Z,0.80
2022-12-28T10:50:37.199Z,0.80
2022-12-28T10:51:20.124Z,0.40
2022-12-28T10:52:20.178Z,0.40
2022-12-28T10:53:20.160Z,1.10
2022-12-28T10:54:28.152Z,0.50
2022-12-28T10:55:20.134Z,1.50
2022-12-28T10:56:20.105Z,0.60
2022-12-28T10:57:27.361Z,0.60
2022-12-28T10:58:35.414Z,1.40
2022-12-28T10:59:20.055Z,0.80
2022-12-28T11:00:20.226Z,0.40
2022-12-28T11:01:20.249Z,0.70
2022-12-28T11:02:20.174Z,0.60
2022-12-28T11:03:20.016Z,0.60
2022-12-28T11:04:20.003Z,0.80
2022-12-28T11:05:19.994Z,0.60
2022-12-28T11:06:26.365Z,0.90
2022-12-28T11:07:20.034Z,0.80
2022-12-28T11:08:20.013Z,0.50
2022-12-28T11:09:20.000Z,0.60
2022-12-28T11:10:20.015Z,1.10
2022-12-28T11:11:20.009Z,2.00
2022-12-28T11:12:19.994Z,1.10
2022-12-28T11:13:21.995Z,1.00
2022-12-28T11:14:19.947Z,0.80
2022-12-28T11:15:19.932Z,0.60
2022-12-28T11:16:19.996Z,1.20
2022-12-28T11:17:19.975Z,0.50
2022-12-28T11:18:20.064Z,0.70
2022-12-28T11:19:19.893Z,1.50
2022-12-28T11:20:19.887Z,0.80
2022-12-28T11:21:19.838Z,1.50
2022-12-28T11:22:19.814Z,1.40
2022-12-28T11:23:19.785Z,0.80
2022-12-28T11:24:20.070Z,1.00
2022-12-28T11:25:19.766Z,1.00
2022-12-28T11:26:19.756Z,0.70
2022-12-28T11:27:19.764Z,0.50
2022-12-28T11:28:19.797Z,0.60
2022-12-28T11:29:19.819Z,1.20
2022-12-28T11:30:20.056Z,1.30
2022-12-28T11:31:19.799Z,1.80
2022-12-28T11:32:19.710Z,0.40
2022-12-28T11:33:19.681Z,0.70
2022-12-28T11:34:19.682Z,0.40
2022-12-28T11:35:19.799Z,1.10
2022-12-28T11:36:19.816Z,0.50
2022-12-28T11:37:19.694Z,0.60
2022-12-28T11:38:19.692Z,1.10
2022-12-28T11:39:19.677Z,0.50
2022-12-28T11:40:19.625Z,0.50
2022-12-28T11:41:19.607Z,1.50
2022-12-28T11:42:38.603Z,2.40
2022-12-28T11:43:19.643Z,1.00
2022-12-28T11:44:19.633Z,0.80
2022-12-28T11:45:19.611Z,1.10
2022-12-28T11:46:19.580Z,0.90
2022-12-28T11:47:22.383Z,1.00
2022-12-28T11:48:19.689Z,0.80
2022-12-28T11:49:19.569Z,0.60
2022-12-28T11:50:19.567Z,0.80
2022-12-28T11:51:19.550Z,0.50
2022-12-28T11:52:19.563Z,0.60
2022-12-28T11:53:19.533Z,0.60
2022-12-28T11:54:19.561Z,0.90
2022-12-28T11:55:19.750Z,1.40
2022-12-28T11:56:19.503Z,1.00
2022-12-28T11:57:19.489Z,0.40
2022-12-28T11:58:19.479Z,1.50
2022-12-28T11:59:19.468Z,0.50
2022-12-28T12:00:23.036Z,0.60
2022-12-28T12:01:19.460Z,0.60
2022-12-28T12:02:19.469Z,0.90
2022-12-28T12:03:19.410Z,1.50
2022-12-28T12:04:19.412Z,1.40
2022-12-28T12:05:19.418Z,0.90
2022-12-28T12:06:19.502Z,0.50
2022-12-28T12:07:19.360Z,0.50
2022-12-28T12:08:19.331Z,0.70
2022-12-28T12:09:19.306Z,1.30
2022-12-28T12:10:19.321Z,0.80
2022-12-28T12:11:19.290Z,0.70
2022-12-28T12:12:19.335Z,0.50
2022-12-28T12:13:19.275Z,1.20
2022-12-28T12:14:19.282Z,0.40
2022-12-28T12:15:19.250Z,0.70
2022-12-28T12:16:19.329Z,0.60
2022-12-28T12:17:19.218Z,0.70
2022-12-28T12:18:19.369Z,0.90
2022-12-28T12:19:19.264Z,0.60
2022-12-28T12:20:19.260Z,1.20
2022-12-28T12:21:19.237Z,0.50
2022-12-28T12:22:19.247Z,0.90
2022-12-28T12:23:19.210Z,1.50
2022-12-28T12:24:19.216Z,0.70
2022-12-28T12:25:19.138Z,0.60
2022-12-28T12:26:19.127Z,1.10
2022-12-28T12:27:19.171Z,0.80
2022-12-28T12:28:19.170Z,0.80
2022-12-28T12:29:19.156Z,0.60
2022-12-28T12:30:19.425Z,0.40
2022-12-28T12:31:19.179Z,0.70
2022-12-28T12:32:19.137Z,0.70
2022-12-28T12:33:19.112Z,0.60
2022-12-28T12:34:19.904Z,0.40
2022-12-28T12:35:19.119Z,0.90
2022-12-28T12:36:19.307Z,0.60
2022-12-28T12:37:19.067Z,0.60
2022-12-28T12:38:19.054Z,1.00
2022-12-28T12:39:19.063Z,0.70
2022-12-28T12:40:19.032Z,0.50
2022-12-28T12:41:19.051Z,1.80
2022-12-28T12:42:19.152Z,1.50
2022-12-28T12:43:19.012Z,0.80
2022-12-28T12:44:19.003Z,0.40
2022-12-28T12:45:18.926Z,0.80
2022-12-28T12:46:18.933Z,0.90
2022-12-28T12:47:18.911Z,0.30
2022-12-28T12:48:19.101Z,0.40
2022-12-28T12:49:18.905Z,1.00
2022-12-28T12:50:18.925Z,0.80
2022-12-28T12:51:18.919Z,0.40
2022-12-28T12:52:18.912Z,0.90
2022-12-28T12:53:18.905Z,0.60
2022-12-28T12:54:19.115Z,2.10
2022-12-28T12:55:18.881Z,0.60
2022-12-28T12:56:18.872Z,0.60
2022-12-28T12:57:18.861Z,1.80
2022-12-28T12:58:18.855Z,0.40
2022-12-28T12:59:18.848Z,0.40
2022-12-28T13:00:19.172Z,0.80
2022-12-28T13:01:18.829Z,0.40
2022-12-28T13:02:18.999Z,4.00
2022-12-28T13:03:18.786Z,0.40
2022-12-28T13:04:18.724Z,0.70
2022-12-28T13:05:18.729Z,0.50
2022-12-28T13:06:19.510Z,0.70
2022-12-28T13:07:18.753Z,0.40
2022-12-28T13:08:18.738Z,1.40
2022-12-28T13:09:18.732Z,0.50
2022-12-28T13:10:18.671Z,0.90
2022-12-28T13:11:18.664Z,0.80
2022-12-28T13:12:18.882Z,0.70
2022-12-28T13:13:18.713Z,3.00
2022-12-28T13:14:18.639Z,0.40
2022-12-28T13:15:18.619Z,0.80
2022-12-28T13:16:18.624Z,2.80
2022-12-28T13:17:18.594Z,2.10
2022-12-28T13:18:44.011Z,0.30
2022-12-28T13:19:18.598Z,0.80
2022-12-28T13:20:18.571Z,1.60
2022-12-28T13:21:18.618Z,1.00